Time;durP1;ratioP1;P1;durP2;ratioP2;P2;SDS_P1;SDS_P2;PMS_P1;PMS_P2;Temp;Humidity;BMP_temperature;BMP_pressure;BME280_temperature;BME280_humidity;BME280_pressure;Samples;Min_cycle;Max_cycle;Signal;HPM_P1;HPM_P2
2022/05/27 00:01:05;;;;;;;;;;;;;;;16.99;67.51;101353.84;4966694;28;104171;-52
2022/05/27 00:03:31;;;;;;;;;;;;;;;16.99;67.11;101353.84;4978517;28;102408;-52
2022/05/27 00:05:58;;;;;;;;;;;;;;;16.98;67.49;101352.19;4973028;28;102275;-52
2022/05/27 00:08:25;;;;;;;;;;;;;;;16.98;67.30;101352.19;4971716;28;102487;-52
2022/05/27 00:10:53;;;;;;;;;;;;;;;16.99;67.04;101351.09;4974821;28;104138;-52
2022/05/27 00:13:21;;;;;;;;;;;;;;;16.98;67.01;101346.69;4974155;28;102105;-52
2022/05/27 00:15:49;;;;;;;;;;;;;;;17.00;67.14;101351.91;4974851;28;102391;-52
2022/05/27 00:18:18;;;;;;;;;;;;;;;16.99;67.47;101348.34;4973834;28;102504;-52
2022/05/27 00:20:45;;;;;;;;;;;;;;;16.98;67.36;101346.69;4975731;28;103921;-52
2022/05/27 00:23:11;;;;;;;;;;;;;;;16.99;67.19;101350.28;4975426;28;102146;-52
2022/05/27 00:25:37;;;;;;;;;;;;;;;16.98;67.07;101341.19;4957336;28;102208;-52
2022/05/27 00:28:05;;;;;;;;;;;;;;;16.99;67.01;101339.28;4962509;28;102598;-52
2022/05/27 00:30:32;;;;;;;;;;;;;;;16.99;67.53;101331.03;4975070;28;104049;-51
2022/05/27 00:32:58;;;;;;;;;;;;;;;16.98;67.46;101330.19;4978264;28;102248;-51
2022/05/27 00:35:25;;;;;;;;;;;;;;;16.97;66.96;101327.75;4968135;28;102442;-52
2022/05/27 00:37:51;;;;;;;;;;;;;;;16.98;67.31;101335.69;4909571;28;1457792;-52
2022/05/27 00:40:18;;;;;;;;;;;;;;;16.97;67.33;101328.56;4963523;28;103958;-52
2022/05/27 00:42:46;;;;;;;;;;;;;;;16.98;67.28;101324.69;4960099;28;102319;-52
2022/05/27 00:45:15;;;;;;;;;;;;;;;16.98;67.51;101330.19;4975943;28;102460;-52
2022/05/27 00:47:42;;;;;;;;;;;;;;;16.99;67.18;101328.28;4976281;28;102602;-52
2022/05/27 00:50:09;;;;;;;;;;;;;;;16.98;66.95;101324.69;4977228;28;103908;-52
2022/05/27 00:52:37;;;;;;;;;;;;;;;16.98;67.38;101316.44;4976927;28;102134;-52
2022/05/27 00:55:06;;;;;;;;;;;;;;;16.99;66.88;101314.53;4977236;28;102259;-52
2022/05/27 00:57:35;;;;;;;;;;;;;;;16.97;67.11;101314.00;4971316;28;102379;-52
2022/05/27 01:00:03;;;;;;;;;;;;;;;16.98;67.38;101313.69;4977106;28;104295;-52
2022/05/27 01:02:31;;;;;;;;;;;;;;;16.98;67.42;101308.19;4975191;28;103428;-52
2022/05/27 01:04:57;;;;;;;;;;;;;;;16.97;67.00;101306.56;4965216;28;102143;-52
2022/05/27 01:07:23;;;;;;;;;;;;;;;16.97;67.47;101317.56;4967244;28;102187;-52
2022/05/27 01:09:50;;;;;;;;;;;;;;;16.98;67.06;101312.88;4972310;28;103902;-52
2022/05/27 01:12:24;;;;;;;;;;;;;;;16.98;67.34;101310.13;4976500;28;102825;-52
2022/05/27 01:15:07;;;;;;;;;;;;;;;16.98;67.45;101313.69;4970045;28;102388;-51
2022/05/27 01:17:40;;;;;;;;;;;;;;;16.97;67.09;101317.56;4974981;28;102559;-52
2022/05/27 01:20:19;;;;;;;;;;;;;;;16.98;67.50;101307.38;4966510;28;104104;-52
2022/05/27 01:22:56;;;;;;;;;;;;;;;16.96;67.61;101315.94;4973807;28;102200;-52
2022/05/27 01:25:37;;;;;;;;;;;;;;;16.98;67.58;101312.88;4963304;28;102364;-52
2022/05/27 01:28:16;;;;;;;;;;;;;;;16.97;67.21;101317.56;4972244;28;102515;-52
2022/05/27 01:30:48;;;;;;;;;;;;;;;16.97;67.35;101314.81;4974725;28;103862;-52
2022/05/27 01:33:20;;;;;;;;;;;;;;;16.96;67.08;101318.69;4977989;28;102453;-51
2022/05/27 01:35:56;;;;;;;;;;;;;;;16.96;67.37;101315.94;4971198;28;102532;-51
2022/05/27 01:38:27;;;;;;;;;;;;;;;16.97;67.13;101316.75;4976234;28;102050;-52
2022/05/27 01:40:58;;;;;;;;;;;;;;;16.97;67.53;101314.00;4976044;28;104063;-52
2022/05/27 01:43:36;;;;;;;;;;;;;;;16.97;67.54;101314.81;4977934;28;102617;-51
2022/05/27 01:46:08;;;;;;;;;;;;;;;16.96;67.05;101304.94;4976124;28;102706;-52
2022/05/27 01:48:38;;;;;;;;;;;;;;;16.97;67.14;101301.06;4972106;28;102198;-51
2022/05/27 01:51:07;;;;;;;;;;;;;;;16.96;67.00;101310.44;4964499;28;103983;-50
2022/05/27 01:53:36;;;;;;;;;;;;;;;16.97;67.57;101309.31;4963863;28;101816;-51
2022/05/27 01:56:14;;;;;;;;;;;;;;;16.95;67.45;101308.81;4965582;28;102378;-52
2022/05/27 01:58:44;;;;;;;;;;;;;;;16.97;67.54;101317.56;4963341;28;102205;-52
2022/05/27 02:01:14;;;;;;;;;;;;;;;16.96;67.09;101315.94;4975371;28;104211;-52
2022/05/27 02:03:44;;;;;;;;;;;;;;;16.96;67.06;101315.13;4977739;28;102164;-52
2022/05/27 02:06:12;;;;;;;;;;;;;;;16.96;67.16;101313.19;4975519;28;102441;-52
2022/05/27 02:08:42;;;;;;;;;;;;;;;16.96;67.22;101313.19;4973209;28;102400;-52
2022/05/27 02:11:11;;;;;;;;;;;;;;;16.96;67.22;101310.44;4972260;28;104057;-52
2022/05/27 02:13:39;;;;;;;;;;;;;;;16.95;67.32;101313.47;4976594;28;102202;-51
2022/05/27 02:16:06;;;;;;;;;;;;;;;16.94;67.16;101301.66;4972166;28;102495;-52
2022/05/27 02:18:37;;;;;;;;;;;;;;;16.95;67.46;101314.31;4976493;28;102316;-52
2022/05/27 02:21:06;;;;;;;;;;;;;;;16.95;67.12;101318.97;4972742;28;104031;-52
2022/05/27 02:23:35;;;;;;;;;;;;;;;16.96;67.34;101321.44;4966378;28;102197;-51
2022/05/27 02:26:03;;;;;;;;;;;;;;;16.95;67.22;101314.31;4976021;28;102328;-51
2022/05/27 02:28:32;;;;;;;;;;;;;;;16.95;67.58;101316.22;4977116;28;102305;-52
2022/05/27 02:31:02;;;;;;;;;;;;;;;16.94;67.01;101318.16;4983710;28;103837;-51
2022/05/27 02:36:20;;;;;;;;;;;;;;;16.94;67.68;101323.66;4975532;28;102029;-52
2022/05/27 02:38:47;;;;;;;;;;;;;;;16.94;67.37;101306.34;4965172;28;102175;-52
2022/05/27 02:41:17;;;;;;;;;;;;;;;16.95;67.46;101319.81;4962229;28;104154;-52
2022/05/27 02:43:51;;;;;;;;;;;;;;;16.95;67.40;101316.22;4977238;28;102631;-52
2022/05/27 02:46:24;;;;;;;;;;;;;;;16.94;67.24;101312.66;4959321;28;101829;-52
2022/05/27 02:48:55;;;;;;;;;;;;;;;16.95;67.47;101313.47;4961945;28;102398;-52
2022/05/27 02:51:25;;;;;;;;;;;;;;;16.94;67.39;101318.16;4962136;28;104326;-51
2022/05/27 02:54:00;;;;;;;;;;;;;;;16.94;67.16;101315.41;4976853;28;101875;-51
2022/05/27 02:56:29;;;;;;;;;;;;;;;16.95;67.29;101328.06;4974996;28;102288;-52
2022/05/27 02:58:55;;;;;;;;;;;;;;;16.94;67.51;101329.16;4977519;28;102960;-54
2022/05/27 03:01:22;;;;;;;;;;;;;;;16.95;67.51;101332.72;4956731;28;103911;-52
2022/05/27 03:03:48;;;;;;;;;;;;;;;16.94;67.45;101323.66;4957289;28;102003;-51
2022/05/27 03:06:22;;;;;;;;;;;;;;;16.95;67.11;101329.97;4956566;28;102068;-51
2022/05/27 03:08:56;;;;;;;;;;;;;;;16.95;67.10;101335.47;4976965;28;102062;-52
2022/05/27 03:11:26;;;;;;;;;;;;;;;16.95;67.37;101330.81;4975485;28;104058;-52
2022/05/27 03:14:18;;;;;;;;;;;;;;;16.95;67.29;101336.31;4976912;28;102350;-52
2022/05/27 03:16:50;;;;;;;;;;;;;;;16.94;67.35;101340.16;4973219;28;102303;-52
2022/05/27 03:19:26;;;;;;;;;;;;;;;16.95;67.43;101341.81;4972944;28;102265;-52
2022/05/27 03:21:58;;;;;;;;;;;;;;;16.96;67.16;101335.19;4964219;28;103861;-52
2022/05/27 03:24:34;;;;;;;;;;;;;;;16.97;66.93;101333.25;4976379;28;102171;-51
2022/05/27 03:27:04;;;;;;;;;;;;;;;16.98;66.97;101329.38;4974954;28;102174;-52
2022/05/27 03:29:33;;;;;;;;;;;;;;;16.97;67.22;101334.06;4972213;28;102419;-52
2022/05/27 03:32:07;;;;;;;;;;;;;;;16.97;67.14;101333.25;4956261;28;103832;-52
2022/05/27 03:34:36;;;;;;;;;;;;;;;16.98;67.28;101334.88;4960916;28;102071;-52
2022/05/27 03:37:05;;;;;;;;;;;;;;;16.99;67.33;101336.53;4964500;28;102466;-52
2022/05/27 03:39:38;;;;;;;;;;;;;;;16.98;67.43;101343.13;4972403;28;102272;-52
2022/05/27 03:42:08;;;;;;;;;;;;;;;16.98;67.29;101341.19;4972159;28;104245;-52
2022/05/27 03:44:34;;;;;;;;;;;;;;;16.99;67.58;101342.84;4974085;28;102267;-52
2022/05/27 03:47:00;;;;;;;;;;;;;;;17.00;67.83;101344.47;4968176;28;102183;-51
2022/05/27 03:49:27;;;;;;;;;;;;;;;17.00;67.50;101344.47;4977053;28;102421;-50
2022/05/27 03:51:56;;;;;;;;;;;;;;;17.02;67.83;101341.41;4971577;28;104632;-51
2022/05/27 03:54:23;;;;;;;;;;;;;;;17.02;67.41;101341.41;4969270;28;102164;-52
2022/05/27 03:56:51;;;;;;;;;;;;;;;17.02;67.94;101345.00;4976134;28;102423;-51
2022/05/27 03:59:18;;;;;;;;;;;;;;;17.02;67.82;101336.75;4974086;28;102500;-52
2022/05/27 04:01:45;;;;;;;;;;;;;;;17.03;68.10;101349.38;4976574;28;103887;-52
2022/05/27 04:04:16;;;;;;;;;;;;;;;17.03;67.75;101345.81;4978980;28;102441;-52
2022/05/27 04:06:42;;;;;;;;;;;;;;;17.03;68.02;101340.31;4972124;28;103077;-51
2022/05/27 04:09:08;;;;;;;;;;;;;;;17.03;67.62;101343.88;4975998;28;102262;-52
2022/05/27 04:11:35;;;;;;;;;;;;;;;17.04;68.10;101342.75;4972163;28;103837;-52
2022/05/27 04:14:03;;;;;;;;;;;;;;;17.03;68.04;101343.88;4971724;28;102270;-52
2022/05/27 04:16:29;;;;;;;;;;;;;;;17.04;67.86;101342.75;4969786;28;102243;-52
2022/05/27 04:18:57;;;;;;;;;;;;;;;17.05;67.64;101338.88;4976825;28;102388;-52
2022/05/27 04:21:24;;;;;;;;;;;;;;;17.05;68.17;101347.13;4959736;28;103992;-52
2022/05/27 04:23:52;;;;;;;;;;;;;;;17.05;68.06;101349.88;4959681;28;102009;-52
2022/05/27 04:26:18;;;;;;;;;;;;;;;17.05;67.83;101349.88;4959038;28;102172;-52
2022/05/27 04:28:44;;;;;;;;;;;;;;;17.06;68.06;101342.47;4962603;28;102316;-52
2022/05/27 04:31:12;;;;;;;;;;;;;;;17.07;68.08;101346.84;4970341;28;103767;-52
2022/05/27 04:33:39;;;;;;;;;;;;;;;17.09;67.80;101354.78;4959479;28;102221;-52
2022/05/27 04:36:08;;;;;;;;;;;;;;;17.09;67.86;101352.03;4969180;28;102363;-52
2022/05/27 04:38:36;;;;;;;;;;;;;;;17.09;68.29;101357.53;4979672;28;102597;-52
2022/05/27 04:41:02;;;;;;;;;;;;;;;17.09;67.91;101346.53;4976786;28;103836;-52
2022/05/27 04:43:29;;;;;;;;;;;;;;;17.08;67.74;101347.66;4964331;28;102279;-52
2022/05/27 04:45:57;;;;;;;;;;;;;;;17.09;68.15;101352.03;4958664;28;102344;-52
2022/05/27 04:48:25;;;;;;;;;;;;;;;17.09;68.40;101355.59;4959911;28;102282;-52
2022/05/27 04:50:52;;;;;;;;;;;;;;;17.10;67.94;101354.50;4964201;28;103991;-52
2022/05/27 04:53:18;;;;;;;;;;;;;;;17.11;67.90;101355.31;4978193;28;102330;-52
2022/05/27 04:55:45;;;;;;;;;;;;;;;17.12;68.21;101345.94;4963330;28;102405;-52
2022/05/27 04:58:13;;;;;;;;;;;;;;;17.13;68.07;101353.91;4968921;28;102696;-52
2022/05/27 05:00:42;;;;;;;;;;;;;;;17.14;68.28;101346.47;4974055;28;103794;-52
2022/05/27 05:03:12;;;;;;;;;;;;;;;17.15;68.31;101350.84;4978481;28;102465;-52
2022/05/27 05:05:40;;;;;;;;;;;;;;;17.17;67.92;101345.88;4974757;28;102480;-52
2022/05/27 05:08:07;;;;;;;;;;;;;;;17.18;67.71;101351.06;4975315;28;102210;-52
2022/05/27 05:10:35;;;;;;;;;;;;;;;17.20;67.62;101348.84;4969486;28;103811;-52
2022/05/27 05:13:02;;;;;;;;;;;;;;;17.22;67.64;101357.59;4967283;28;102564;-52
2022/05/27 05:15:29;;;;;;;;;;;;;;;17.24;67.82;101349.88;4957430;28;102681;-52
2022/05/27 05:17:56;;;;;;;;;;;;;;;17.26;67.97;101352.31;4968416;28;102146;-52
2022/05/27 05:20:23;;;;;;;;;;;;;;;17.27;67.60;101346.53;4967818;28;104533;-52
2022/05/27 05:22:51;;;;;;;;;;;;;;;17.27;67.84;101345.69;4975628;28;102047;-52
2022/05/27 05:25:20;;;;;;;;;;;;;;;17.28;67.35;101350.91;4971351;28;102327;-52
2022/05/27 05:27:47;;;;;;;;;;;;;;;17.30;67.34;101348.66;4970810;28;102370;-51
2022/05/27 05:30:15;;;;;;;;;;;;;;;17.32;67.26;101351.09;4970498;28;103881;-51
2022/05/27 05:32:41;;;;;;;;;;;;;;;17.34;67.56;101348.03;4970934;28;104502;-51
2022/05/27 05:35:08;;;;;;;;;;;;;;;17.35;66.93;101345.00;4970609;28;102893;-52
2022/05/27 05:37:34;;;;;;;;;;;;;;;17.38;66.82;101347.16;4971374;28;102240;-52
2022/05/27 05:40:03;;;;;;;;;;;;;;;17.41;66.77;101349.28;4973060;28;104051;-52
2022/05/27 05:42:29;;;;;;;;;;;;;;;17.44;66.82;101348.69;4969121;28;102323;-52
2022/05/27 05:44:58;;;;;;;;;;;;;;;17.46;66.51;101345.66;4966993;28;102337;-52
2022/05/27 05:47:24;;;;;;;;;;;;;;;17.47;66.55;101350.84;4975204;28;102748;-52
2022/05/27 05:49:50;;;;;;;;;;;;;;;17.49;66.42;101345.84;4971515;28;103881;-52
2022/05/27 05:52:16;;;;;;;;;;;;;;;17.51;66.72;101354.59;4962960;28;102825;-51
2022/05/27 05:54:43;;;;;;;;;;;;;;;17.52;66.18;101356.22;4970853;28;103100;-52
2022/05/27 05:57:11;;;;;;;;;;;;;;;17.54;66.69;101354.00;4980492;28;102438;-51
2022/05/27 05:59:39;;;;;;;;;;;;;;;17.57;66.41;101357.28;4969113;28;104114;-52
2022/05/27 06:02:07;;;;;;;;;;;;;;;17.58;66.54;101353.41;4970586;28;102402;-52
2022/05/27 06:04:33;;;;;;;;;;;;;;;17.58;66.45;101347.91;4971213;28;102265;-52
2022/05/27 06:07:01;;;;;;;;;;;;;;;17.58;66.65;101347.91;4976323;28;102267;-52
2022/05/27 06:09:27;;;;;;;;;;;;;;;17.57;66.32;101344.34;4971273;28;103885;-52
2022/05/27 06:11:54;;;;;;;;;;;;;;;17.60;66.29;101340.16;4975445;28;102069;-51
2022/05/27 06:14:21;;;;;;;;;;;;;;;17.61;66.05;101337.09;4974081;28;102172;-51
2022/05/27 06:16:48;;;;;;;;;;;;;;;17.63;66.23;101336.78;4973801;28;102080;-52
2022/05/27 06:19:14;;;;;;;;;;;;;;;17.63;66.18;101350.56;4971241;28;103981;-52
2022/05/27 06:21:41;;;;;;;;;;;;;;;17.64;66.35;101352.22;4970133;28;102425;-51
2022/05/27 06:24:07;;;;;;;;;;;;;;;17.65;66.02;101342.81;4967296;28;102454;-51
2022/05/27 06:26:33;;;;;;;;;;;;;;;17.66;66.16;101338.94;4971152;28;102503;-52
2022/05/27 06:34:31;;;;;;;;;;;;;;;17.69;66.09;101343.84;4975975;28;102547;-52
2022/05/27 06:37:00;;;;;;;;;;;;;;;17.69;65.87;101341.91;4976710;28;102213;-51
2022/05/27 06:39:27;;;;;;;;;;;;;;;17.70;66.32;101345.47;4966083;28;103977;-52
2022/05/27 06:41:54;;;;;;;;;;;;;;;17.72;66.21;101334.97;4974605;28;102266;-52
2022/05/27 06:44:21;;;;;;;;;;;;;;;17.73;66.30;101344.88;4976805;28;102245;-52
2022/05/27 06:46:51;;;;;;;;;;;;;;;17.73;66.02;101339.34;4972932;28;102308;-52
2022/05/27 06:49:18;;;;;;;;;;;;;;;17.74;66.06;101338.22;4974502;28;103979;-51
2022/05/27 06:51:45;;;;;;;;;;;;;;;17.74;66.03;101336.31;4967304;28;102098;-51
2022/05/27 06:54:11;;;;;;;;;;;;;;;17.75;66.10;101335.22;4969811;28;102469;-52
2022/05/27 06:56:38;;;;;;;;;;;;;;;17.76;66.19;101336.03;4976983;28;102374;-51
2022/05/27 06:59:05;;;;;;;;;;;;;;;17.77;66.18;101334.91;4974209;28;103919;-52
2022/05/27 07:01:32;;;;;;;;;;;;;;;17.78;66.08;101333.81;4976603;28;102392;-53
2022/05/27 07:04:00;;;;;;;;;;;;;;;17.79;66.03;101335.44;4975661;28;101884;-51
2022/05/27 07:06:29;;;;;;;;;;;;;;;17.80;65.90;101333.47;4977264;28;102617;-51
2022/05/27 07:08:55;;;;;;;;;;;;;;;17.80;66.03;101337.06;4972353;28;104193;-52
2022/05/27 07:11:21;;;;;;;;;;;;;;;17.81;66.08;101335.09;4976709;28;102216;-51
2022/05/27 07:13:47;;;;;;;;;;;;;;;17.79;66.11;101327.16;4968942;28;102107;-51
2022/05/27 07:16:14;;;;;;;;;;;;;;;17.80;66.24;101334.28;4976207;28;102640;-52
2022/05/27 07:18:40;;;;;;;;;;;;;;;17.81;66.22;101341.44;4971764;28;104089;-51
2022/05/27 07:21:08;;;;;;;;;;;;;;;17.81;66.05;101335.91;4961593;28;102058;-52
2022/05/27 07:23:35;;;;;;;;;;;;;;;17.82;66.19;101331.25;4974219;28;102194;-52
2022/05/27 07:26:01;;;;;;;;;;;;;;;17.82;66.14;101331.25;4975022;28;102580;-51
2022/05/27 07:28:28;;;;;;;;;;;;;;;17.82;65.87;101332.06;4967083;28;103902;-52
2022/05/27 07:30:55;;;;;;;;;;;;;;;17.83;65.97;101333.69;4976153;28;102164;-51
2022/05/27 07:33:21;;;;;;;;;;;;;;;17.83;65.84;101333.69;4976294;28;102477;-51
2022/05/27 07:35:47;;;;;;;;;;;;;;;17.83;66.02;101333.69;4979991;28;102215;-52
2022/05/27 07:38:17;;;;;;;;;;;;;;;17.84;66.20;101324.31;4972311;28;103443;-52
2022/05/27 07:40:47;;;;;;;;;;;;;;;17.83;65.92;101319.91;4978000;28;102258;-52
2022/05/27 07:43:14;;;;;;;;;;;;;;;17.84;65.79;101321.53;4976493;28;101961;-52
2022/05/27 07:45:42;;;;;;;;;;;;;;;17.84;65.86;101318.78;4979785;28;102169;-52
2022/05/27 07:48:09;;;;;;;;;;;;;;;17.85;66.06;101319.59;4973014;28;104529;-51
2022/05/27 07:50:36;;;;;;;;;;;;;;;17.85;65.84;101325.94;4959657;28;102289;-51
2022/05/27 07:53:03;;;;;;;;;;;;;;;17.85;65.92;101325.94;4966376;28;106851;-52
2022/05/27 07:55:31;;;;;;;;;;;;;;;17.85;66.15;101317.69;4974704;28;102691;-52
2022/05/27 07:57:59;;;;;;;;;;;;;;;17.85;65.99;101309.44;4964120;28;104129;-52
2022/05/27 08:00:27;;;;;;;;;;;;;;;17.86;65.80;101315.75;4974512;28;102005;-51
2022/05/27 08:02:54;;;;;;;;;;;;;;;17.84;66.14;101306.97;4963578;28;102482;-52
2022/05/27 08:05:21;;;;;;;;;;;;;;;17.84;66.24;101307.78;4960553;28;102035;-51
2022/05/27 08:07:48;;;;;;;;;;;;;;;17.84;66.27;101294.00;4972313;28;103943;-51
2022/05/27 08:10:16;;;;;;;;;;;;;;;17.85;66.12;101292.91;4972390;28;102339;-52
2022/05/27 08:12:46;;;;;;;;;;;;;;;17.86;65.81;101299.22;4967635;28;102815;-52
2022/05/27 08:15:13;;;;;;;;;;;;;;;17.86;65.79;101305.56;4971053;28;103714;-51
2022/05/27 08:17:39;;;;;;;;;;;;;;;17.86;65.88;101289.03;4973061;28;103970;-52
2022/05/27 08:20:07;;;;;;;;;;;;;;;17.87;65.76;101290.66;4974911;28;102446;-51
2022/05/27 08:22:34;;;;;;;;;;;;;;;17.91;65.80;101291.66;4976031;28;102039;-51
2022/05/27 08:25:00;;;;;;;;;;;;;;;17.92;65.60;101282.31;4975320;28;102497;-52
2022/05/27 08:27:26;;;;;;;;;;;;;;;17.94;65.69;101296.56;4966426;28;104165;-51
2022/05/27 08:29:54;;;;;;;;;;;;;;;17.96;65.70;101286.06;4966622;28;102027;-51
2022/05/27 08:32:20;;;;;;;;;;;;;;;17.99;65.54;101288.22;4972922;28;102211;-51
2022/05/27 08:40:24;;;;;;;;;;;;;;;17.97;65.65;101284.94;4966169;28;102304;-52
2022/05/27 08:42:54;;;;;;;;;;;;;;;17.97;65.61;101273.91;4967821;28;102078;-52
2022/05/27 08:45:26;;;;;;;;;;;;;;;17.97;65.96;101279.44;4975501;28;102343;-52
2022/05/27 08:47:54;;;;;;;;;;;;;;;17.96;65.52;101277.00;4970218;28;103816;-51
2022/05/27 08:50:24;;;;;;;;;;;;;;;17.97;65.38;101284.13;4967258;28;102475;-51
2022/05/27 08:52:54;;;;;;;;;;;;;;;17.97;65.60;101273.91;4974399;28;102540;-52
2022/05/27 09:01:01;;;;;;;;;;;;;;;18.01;65.47;101268.63;4961002;28;102214;-52
2022/05/27 09:03:30;;;;;;;;;;;;;;;18.00;65.64;101261.50;4970997;28;102180;-52
2022/05/27 09:05:59;;;;;;;;;;;;;;;17.99;65.54;101265.34;4967825;28;102616;-52
2022/05/27 09:08:25;;;;;;;;;;;;;;;17.99;65.69;101266.19;4962266;28;107771;-52
2022/05/27 09:10:56;;;;;;;;;;;;;;;17.99;65.33;101259.84;4973140;28;102117;-52
2022/05/27 09:13:24;;;;;;;;;;;;;;;17.97;65.40;101265.66;4961012;28;102170;-52
2022/05/27 09:15:55;;;;;;;;;;;;;;;17.96;65.65;101254.97;4970609;28;102605;-52
2022/05/27 09:18:27;;;;;;;;;;;;;;;17.95;65.47;101248.63;4969377;28;104087;-52
2022/05/27 09:20:59;;;;;;;;;;;;;;;17.96;65.88;101249.47;4958914;28;101926;-52
2022/05/27 09:23:35;;;;;;;;;;;;;;;17.94;65.38;101247.00;4971541;28;102714;-52
2022/05/27 09:26:04;;;;;;;;;;;;;;;17.93;65.88;101239.06;4966431;28;102260;-51
2022/05/27 09:28:36;;;;;;;;;;;;;;;17.92;65.51;101248.41;4977184;28;104034;-51
2022/05/27 09:31:04;;;;;;;;;;;;;;;17.90;65.59;101237.72;4966926;28;102548;-51
2022/05/27 09:33:34;;;;;;;;;;;;;;;17.88;66.07;101237.19;4977819;28;102288;-51
2022/05/27 09:36:03;;;;;;;;;;;;;;;17.86;66.20;101225.69;4971921;28;102319;-51
2022/05/27 09:38:31;;;;;;;;;;;;;;;17.86;66.08;101231.22;4976751;28;104037;-51
2022/05/27 09:40:59;;;;;;;;;;;;;;;17.86;65.90;101225.69;4977223;28;102212;-51
2022/05/27 09:43:28;;;;;;;;;;;;;;;17.85;66.17;101226.84;4962683;28;106705;-51
2022/05/27 09:45:56;;;;;;;;;;;;;;;17.84;65.89;101225.19;4978555;28;102137;-52
2022/05/27 09:48:22;;;;;;;;;;;;;;;17.84;65.89;101219.69;4986512;28;103949;-51
2022/05/27 09:50:49;;;;;;;;;;;;;;;17.83;66.14;101215.31;4966008;28;102579;-51
2022/05/27 09:53:17;;;;;;;;;;;;;;;17.82;66.21;101208.16;4967266;28;102698;-52
2022/05/27 09:55:49;;;;;;;;;;;;;;;17.83;65.90;101211.75;4972130;28;102370;-52
2022/05/27 09:58:22;;;;;;;;;;;;;;;17.83;66.20;101204.28;4968757;28;103896;-52
2022/05/27 10:00:49;;;;;;;;;;;;;;;17.82;66.31;101204.59;4968811;28;102219;-51
2022/05/27 10:03:23;;;;;;;;;;;;;;;17.82;66.17;101205.41;4967022;28;102428;-52
2022/05/27 10:05:53;;;;;;;;;;;;;;;17.81;66.01;101201.00;4973998;28;102458;-51
2022/05/27 10:08:30;;;;;;;;;;;;;;;17.80;66.13;101196.63;4970665;28;103792;-52
2022/05/27 10:11:12;;;;;;;;;;;;;;;17.80;65.79;101185.63;4962082;28;102413;-51
2022/05/27 10:13:41;;;;;;;;;;;;;;;17.80;66.27;101191.13;4966997;28;102385;-51
2022/05/27 10:16:11;;;;;;;;;;;;;;;17.80;66.25;101182.06;4977113;28;102587;-52
2022/05/27 10:18:37;;;;;;;;;;;;;;;17.80;65.86;101185.63;4970876;28;103892;-52
2022/05/27 10:21:12;;;;;;;;;;;;;;;17.79;66.06;101172.19;4974083;28;102021;-51
2022/05/27 10:23:40;;;;;;;;;;;;;;;17.78;66.04;101179.63;4974982;28;102165;-52
2022/05/27 10:26:24;;;;;;;;;;;;;;;17.76;66.41;101168.09;4965254;28;102629;-56
2022/05/27 10:28:59;;;;;;;;;;;;;;;17.77;66.02;101166.97;4974786;28;104103;-51
2022/05/27 10:31:26;;;;;;;;;;;;;;;17.76;66.38;101157.91;4957411;28;102184;-52
2022/05/27 10:33:53;;;;;;;;;;;;;;;17.75;65.94;101153.53;4962237;28;102401;-52
2022/05/27 10:36:33;;;;;;;;;;;;;;;17.76;66.31;101151.59;4973991;28;102528;-51
2022/05/27 10:39:01;;;;;;;;;;;;;;;17.75;66.14;101149.94;4971714;28;103909;-52
2022/05/27 10:41:34;;;;;;;;;;;;;;;17.76;66.46;101140.56;4973350;28;102555;-51
2022/05/27 10:44:10;;;;;;;;;;;;;;;17.75;66.29;101138.94;4975159;28;102172;-51
2022/05/27 10:46:38;;;;;;;;;;;;;;;17.74;66.44;101137.28;4972948;28;102377;-51
2022/05/27 10:49:18;;;;;;;;;;;;;;;17.74;66.35;101134.53;4972114;28;103910;-51
2022/05/27 10:51:55;;;;;;;;;;;;;;;17.74;66.07;101142.78;4971023;28;102198;-52
2022/05/27 10:54:42;;;;;;;;;;;;;;;17.75;66.39;101133.41;4973993;28;102119;-52
2022/05/27 11:03:18;;;;;;;;;;;;;;;17.74;66.26;101118.00;4963223;28;102111;-51
2022/05/27 11:05:55;;;;;;;;;;;;;;;17.73;66.33;101121.88;4969138;28;102340;-52
2022/05/27 11:08:25;;;;;;;;;;;;;;;17.73;66.47;101121.88;4975535;28;102211;-51
2022/05/27 11:10:58;;;;;;;;;;;;;;;17.73;66.43;101119.13;4963781;28;103970;-52
2022/05/27 11:16:32;;;;;;;;;;;;;;;17.73;66.52;101108.13;4970796;28;102324;-54
2022/05/27 11:19:11;;;;;;;;;;;;;;;17.72;66.19;101112.81;4968204;28;102125;-51
2022/05/27 11:21:49;;;;;;;;;;;;;;;17.74;66.07;101109.75;4969409;28;103914;-51
2022/05/27 11:24:29;;;;;;;;;;;;;;;17.72;66.61;101101.00;4976252;28;102447;-51
2022/05/27 11:26:59;;;;;;;;;;;;;;;17.72;66.61;101106.50;4979145;28;102007;-52
2022/05/27 11:29:35;;;;;;;;;;;;;;;17.72;66.27;101099.06;4964283;28;102634;-51
2022/05/27 11:32:04;;;;;;;;;;;;;;;17.71;66.11;101099.38;4974485;28;103896;-52
2022/05/27 11:34:32;;;;;;;;;;;;;;;17.70;66.25;101092.22;4974939;28;102574;-51
2022/05/27 11:37:11;;;;;;;;;;;;;;;17.70;66.49;101097.72;4971387;28;102405;-51
2022/05/27 11:40:10;;;;;;;;;;;;;;;17.70;66.59;101092.22;4940145;28;102257;-52
2022/05/27 11:42:55;;;;;;;;;;;;;;;17.69;66.36;101085.09;4939285;28;103927;-52
2022/05/27 11:45:27;;;;;;;;;;;;;;;17.70;66.43;101086.72;4932993;28;102976;-52
2022/05/27 11:48:02;;;;;;;;;;;;;;;17.70;66.87;101086.72;4931514;28;102366;-52
2022/05/27 11:50:43;;;;;;;;;;;;;;;17.69;66.37;101085.09;4910210;28;102153;-52
2022/05/27 11:53:26;;;;;;;;;;;;;;;17.67;66.43;101082.66;4929465;28;104037;-51
2022/05/27 11:56:03;;;;;;;;;;;;;;;17.70;66.26;101078.47;4935466;28;102238;-52
2022/05/27 11:58:32;;;;;;;;;;;;;;;17.68;66.70;101078.78;4930179;28;103782;-51
2022/05/27 12:01:04;;;;;;;;;;;;;;;17.68;66.45;101072.47;4916185;28;102658;-52
2022/05/27 12:03:35;;;;;;;;;;;;;;;17.70;66.43;101075.72;4918668;28;104239;-52
2022/05/27 12:06:04;;;;;;;;;;;;;;;17.70;66.64;101070.19;4920478;28;102156;-52
2022/05/27 12:08:33;;;;;;;;;;;;;;;17.69;66.40;101079.59;4919967;28;102412;-52
2022/05/27 12:11:02;;;;;;;;;;;;;;;17.68;66.31;101073.28;4933774;28;102103;-52
2022/05/27 12:13:31;;;;;;;;;;;;;;;17.68;66.31;101066.97;4937200;28;104029;-51
2022/05/27 12:16:01;;;;;;;;;;;;;;;17.68;66.54;101075.22;4934813;28;102205;-52
2022/05/27 12:18:33;;;;;;;;;;;;;;;17.68;66.79;101066.97;4931407;28;102956;-51
2022/05/27 12:21:01;;;;;;;;;;;;;;;17.66;66.43;101074.72;4934739;28;103621;-51
2022/05/27 12:23:28;;;;;;;;;;;;;;;17.69;66.70;101074.09;4929927;28;103447;-52
2022/05/27 12:25:57;;;;;;;;;;;;;;;17.68;66.45;101077.97;4926725;28;104760;-52
2022/05/27 12:28:26;;;;;;;;;;;;;;;17.66;66.94;101063.69;4929641;28;102258;-52
2022/05/27 12:30:55;;;;;;;;;;;;;;;17.66;66.71;101063.69;4915367;28;102450;-51
2022/05/27 12:33:23;;;;;;;;;;;;;;;17.65;66.79;101073.91;4927066;28;103913;-53
2022/05/27 12:35:54;;;;;;;;;;;;;;;17.66;66.86;101060.94;4934299;28;102141;-51
2022/05/27 12:38:23;;;;;;;;;;;;;;;17.66;66.72;101055.44;4948215;28;102861;-52
2022/05/27 12:40:51;;;;;;;;;;;;;;;17.66;66.77;101052.69;4965328;28;102655;-51
2022/05/27 12:43:23;;;;;;;;;;;;;;;17.65;67.03;101046.38;4963193;28;104048;-51
2022/05/27 12:45:52;;;;;;;;;;;;;;;17.65;66.62;101049.13;4973978;28;102395;-51
2022/05/27 12:48:26;;;;;;;;;;;;;;;17.66;66.81;101052.69;4970650;28;102926;-52
2022/05/27 12:50:55;;;;;;;;;;;;;;;17.65;66.84;101045.56;4948727;28;102286;-51
2022/05/27 12:53:33;;;;;;;;;;;;;;;17.65;66.77;101048.31;4959939;28;103783;-51
2022/05/27 13:02:33;;;;;;;;;;;;;;;17.65;66.99;101029.06;4976959;28;102326;-52
2022/05/27 13:05:00;;;;;;;;;;;;;;;17.65;67.19;101026.28;4964906;28;104012;-51
2022/05/27 13:07:43;;;;;;;;;;;;;;;17.63;67.11;101023.84;4965993;28;102331;-51
2022/05/27 13:10:27;;;;;;;;;;;;;;;17.63;67.15;101014.78;4973589;28;102204;-51
2022/05/27 13:12:56;;;;;;;;;;;;;;;17.63;67.51;101015.59;4957782;28;102167;-52